sensor_id;sensor_type;location;lat;lon;timestamp;P1;durP1;ratioP1;P2;durP2;ratioP2
30635;SDS011;17400;52.392;9.750;2023-09-18T00:00:22;5.75;;;3.35;;
30635;SDS011;17400;52.392;9.750;2023-09-18T00:02:51;4.60;;;2.88;;
30635;SDS011;17400;52.392;9.750;2023-09-18T00:05:19;4.93;;;3.08;;
30635;SDS011;17400;52.392;9.750;2023-09-18T00:07:47;4.72;;;3.33;;
30635;SDS011;17400;52.392;9.750;2023-09-18T00:10:14;4.00;;;2.45;;
30635;SDS011;17400;52.392;9.750;2023-09-18T00:12:42;4.88;;;2.72;;
30635;SDS011;17400;52.392;9.750;2023-09-18T00:15:10;5.68;;;3.13;;
30635;SDS011;17400;52.392;9.750;2023-09-18T00:17:38;8.82;;;3.38;;
30635;SDS011;17400;52.392;9.750;2023-09-18T00:20:07;4.13;;;2.53;;
30635;SDS011;17400;52.392;9.750;2023-09-18T00:22:36;4.93;;;3.17;;
30635;SDS011;17400;52.392;9.750;2023-09-18T00:25:04;4.57;;;3.45;;
30635;SDS011;17400;52.392;9.750;2023-09-18T00:27:32;4.97;;;3.22;;
30635;SDS011;17400;52.392;9.750;2023-09-18T00:29:59;3.88;;;2.38;;
30635;SDS011;17400;52.392;9.750;2023-09-18T00:32:28;5.03;;;2.88;;
30635;SDS011;17400;52.392;9.750;2023-09-18T00:34:56;5.15;;;2.90;;
30635;SDS011;17400;52.392;9.750;2023-09-18T00:37:25;3.63;;;2.42;;
30635;SDS011;17400;52.392;9.750;2023-09-18T00:39:53;4.40;;;3.17;;
30635;SDS011;17400;52.392;9.750;2023-09-18T00:42:20;5.15;;;3.05;;
30635;SDS011;17400;52.392;9.750;2023-09-18T00:44:49;3.85;;;2.55;;
30635;SDS011;17400;52.392;9.750;2023-09-18T00:47:17;4.60;;;3.30;;
30635;SDS011;17400;52.392;9.750;2023-09-18T00:49:46;4.95;;;3.00;;
30635;SDS011;17400;52.392;9.750;2023-09-18T00:52:17;4.82;;;3.10;;
30635;SDS011;17400;52.392;9.750;2023-09-18T00:54:48;4.72;;;3.03;;
30635;SDS011;17400;52.392;9.750;2023-09-18T00:57:17;4.07;;;2.70;;
30635;SDS011;17400;52.392;9.750;2023-09-18T00:59:45;5.22;;;3.22;;
30635;SDS011;17400;52.392;9.750;2023-09-18T01:02:13;3.83;;;2.92;;
30635;SDS011;17400;52.392;9.750;2023-09-18T01:04:41;5.20;;;3.00;;
30635;SDS011;17400;52.392;9.750;2023-09-18T01:07:10;6.35;;;3.28;;
30635;SDS011;17400;52.392;9.750;2023-09-18T01:09:38;5.78;;;3.63;;
30635;SDS011;17400;52.392;9.750;2023-09-18T01:12:10;4.80;;;3.10;;
30635;SDS011;17400;52.392;9.750;2023-09-18T01:14:49;4.07;;;2.92;;
30635;SDS011;17400;52.392;9.750;2023-09-18T01:17:23;5.32;;;2.97;;
30635;SDS011;17400;52.392;9.750;2023-09-18T01:19:51;5.18;;;3.05;;
30635;SDS011;17400;52.392;9.750;2023-09-18T01:22:19;6.10;;;3.63;;
30635;SDS011;17400;52.392;9.750;2023-09-18T01:24:49;5.55;;;3.28;;
30635;SDS011;17400;52.392;9.750;2023-09-18T01:27:17;5.40;;;3.25;;
30635;SDS011;17400;52.392;9.750;2023-09-18T01:29:46;4.05;;;2.85;;
30635;SDS011;17400;52.392;9.750;2023-09-18T01:32:15;4.13;;;3.08;;
30635;SDS011;17400;52.392;9.750;2023-09-18T01:34:45;3.97;;;2.55;;
30635;SDS011;17400;52.392;9.750;2023-09-18T01:37:15;4.68;;;2.83;;
30635;SDS011;17400;52.392;9.750;2023-09-18T01:39:46;4.78;;;3.13;;
30635;SDS011;17400;52.392;9.750;2023-09-18T01:42:17;5.20;;;3.08;;
30635;SDS011;17400;52.392;9.750;2023-09-18T01:44:46;5.72;;;2.85;;
30635;SDS011;17400;52.392;9.750;2023-09-18T01:47:15;4.45;;;3.13;;
30635;SDS011;17400;52.392;9.750;2023-09-18T01:49:45;4.85;;;3.10;;
30635;SDS011;17400;52.392;9.750;2023-09-18T01:52:13;4.18;;;2.83;;
30635;SDS011;17400;52.392;9.750;2023-09-18T01:54:41;6.20;;;3.65;;
30635;SDS011;17400;52.392;9.750;2023-09-18T01:57:10;4.53;;;3.00;;
30635;SDS011;17400;52.392;9.750;2023-09-18T01:59:38;4.32;;;2.67;;
30635;SDS011;17400;52.392;9.750;2023-09-18T02:02:08;5.25;;;3.25;;
30635;SDS011;17400;52.392;9.750;2023-09-18T02:04:40;4.38;;;3.05;;
30635;SDS011;17400;52.392;9.750;2023-09-18T02:07:28;5.78;;;3.13;;
30635;SDS011;17400;52.392;9.750;2023-09-18T02:09:56;4.88;;;3.13;;
30635;SDS011;17400;52.392;9.750;2023-09-18T02:12:25;4.40;;;3.17;;
30635;SDS011;17400;52.392;9.750;2023-09-18T02:14:53;5.07;;;3.15;;
30635;SDS011;17400;52.392;9.750;2023-09-18T02:17:23;6.00;;;3.50;;
30635;SDS011;17400;52.392;9.750;2023-09-18T02:19:51;4.95;;;3.75;;
30635;SDS011;17400;52.392;9.750;2023-09-18T02:22:19;5.32;;;3.05;;
30635;SDS011;17400;52.392;9.750;2023-09-18T02:24:46;4.68;;;3.55;;
30635;SDS011;17400;52.392;9.750;2023-09-18T02:27:14;6.63;;;3.42;;
30635;SDS011;17400;52.392;9.750;2023-09-18T02:29:46;3.28;;;2.70;;
30635;SDS011;17400;52.392;9.750;2023-09-18T02:32:16;5.13;;;3.53;;
30635;SDS011;17400;52.392;9.750;2023-09-18T02:34:44;5.40;;;3.65;;
30635;SDS011;17400;52.392;9.750;2023-09-18T02:37:15;5.00;;;3.15;;
30635;SDS011;17400;52.392;9.750;2023-09-18T02:39:42;13.23;;;6.00;;
30635;SDS011;17400;52.392;9.750;2023-09-18T02:42:10;9.30;;;4.60;;
30635;SDS011;17400;52.392;9.750;2023-09-18T02:44:38;3.90;;;3.22;;
30635;SDS011;17400;52.392;9.750;2023-09-18T02:47:07;4.97;;;3.10;;
30635;SDS011;17400;52.392;9.750;2023-09-18T02:49:35;4.95;;;3.40;;
30635;SDS011;17400;52.392;9.750;2023-09-18T02:52:04;4.63;;;3.40;;
30635;SDS011;17400;52.392;9.750;2023-09-18T02:54:32;5.75;;;3.28;;
30635;SDS011;17400;52.392;9.750;2023-09-18T02:57:00;3.92;;;2.85;;
30635;SDS011;17400;52.392;9.750;2023-09-18T02:59:27;5.40;;;3.78;;
30635;SDS011;17400;52.392;9.750;2023-09-18T03:01:55;7.10;;;3.72;;
30635;SDS011;17400;52.392;9.750;2023-09-18T03:04:24;5.43;;;3.13;;
30635;SDS011;17400;52.392;9.750;2023-09-18T03:06:52;5.63;;;3.67;;
30635;SDS011;17400;52.392;9.750;2023-09-18T03:09:20;3.92;;;2.90;;
30635;SDS011;17400;52.392;9.750;2023-09-18T03:11:48;3.95;;;2.45;;
30635;SDS011;17400;52.392;9.750;2023-09-18T03:14:15;4.82;;;3.03;;
30635;SDS011;17400;52.392;9.750;2023-09-18T03:16:43;3.92;;;2.72;;
30635;SDS011;17400;52.392;9.750;2023-09-18T03:19:11;4.28;;;3.33;;
30635;SDS011;17400;52.392;9.750;2023-09-18T03:21:40;5.15;;;3.53;;
30635;SDS011;17400;52.392;9.750;2023-09-18T03:24:08;4.38;;;3.00;;
30635;SDS011;17400;52.392;9.750;2023-09-18T03:26:36;4.13;;;3.22;;
30635;SDS011;17400;52.392;9.750;2023-09-18T03:29:04;4.43;;;3.28;;
30635;SDS011;17400;52.392;9.750;2023-09-18T03:31:31;3.50;;;3.03;;
30635;SDS011;17400;52.392;9.750;2023-09-18T03:33:59;5.38;;;3.72;;
30635;SDS011;17400;52.392;9.750;2023-09-18T03:36:27;5.07;;;3.28;;
30635;SDS011;17400;52.392;9.750;2023-09-18T03:38:56;7.35;;;4.00;;
30635;SDS011;17400;52.392;9.750;2023-09-18T03:41:24;5.43;;;3.35;;
30635;SDS011;17400;52.392;9.750;2023-09-18T03:43:52;4.82;;;3.33;;
30635;SDS011;17400;52.392;9.750;2023-09-18T03:46:20;5.32;;;3.40;;
30635;SDS011;17400;52.392;9.750;2023-09-18T03:48:48;5.50;;;3.53;;
30635;SDS011;17400;52.392;9.750;2023-09-18T03:51:17;6.18;;;4.65;;
30635;SDS011;17400;52.392;9.750;2023-09-18T03:53:45;4.97;;;3.15;;
30635;SDS011;17400;52.392;9.750;2023-09-18T03:56:15;6.72;;;2.85;;
30635;SDS011;17400;52.392;9.750;2023-09-18T03:58:43;4.88;;;3.53;;
30635;SDS011;17400;52.392;9.750;2023-09-18T04:01:13;5.85;;;3.63;;
30635;SDS011;17400;52.392;9.750;2023-09-18T04:03:41;4.00;;;2.80;;
30635;SDS011;17400;52.392;9.750;2023-09-18T04:06:09;8.90;;;3.55;;
30635;SDS011;17400;52.392;9.750;2023-09-18T04:08:36;5.32;;;3.63;;
30635;SDS011;17400;52.392;9.750;2023-09-18T04:11:04;6.13;;;3.88;;
30635;SDS011;17400;52.392;9.750;2023-09-18T04:13:37;8.25;;;2.85;;
30635;SDS011;17400;52.392;9.750;2023-09-18T04:16:05;5.38;;;3.38;;
30635;SDS011;17400;52.392;9.750;2023-09-18T04:18:34;5.25;;;2.97;;
30635;SDS011;17400;52.392;9.750;2023-09-18T04:21:02;4.55;;;3.03;;
30635;SDS011;17400;52.392;9.750;2023-09-18T04:23:30;5.25;;;3.10;;
30635;SDS011;17400;52.392;9.750;2023-09-18T04:25:57;5.55;;;3.80;;
30635;SDS011;17400;52.392;9.750;2023-09-18T04:28:25;6.88;;;3.38;;
30635;SDS011;17400;52.392;9.750;2023-09-18T04:30:54;6.43;;;3.30;;
30635;SDS011;17400;52.392;9.750;2023-09-18T04:33:22;4.72;;;3.30;;
30635;SDS011;17400;52.392;9.750;2023-09-18T04:35:52;8.32;;;4.15;;
30635;SDS011;17400;52.392;9.750;2023-09-18T04:38:19;5.45;;;3.40;;
30635;SDS011;17400;52.392;9.750;2023-09-18T04:40:47;4.50;;;3.03;;
30635;SDS011;17400;52.392;9.750;2023-09-18T04:43:15;4.47;;;3.20;;
30635;SDS011;17400;52.392;9.750;2023-09-18T04:45:43;5.90;;;3.88;;
30635;SDS011;17400;52.392;9.750;2023-09-18T04:48:13;4.93;;;3.13;;
30635;SDS011;17400;52.392;9.750;2023-09-18T04:50:41;5.90;;;3.40;;
30635;SDS011;17400;52.392;9.750;2023-09-18T04:53:09;4.13;;;2.92;;
30635;SDS011;17400;52.392;9.750;2023-09-18T04:55:37;5.45;;;3.90;;
30635;SDS011;17400;52.392;9.750;2023-09-18T04:58:05;4.88;;;3.00;;
30635;SDS011;17400;52.392;9.750;2023-09-18T05:00:33;5.15;;;3.22;;
30635;SDS011;17400;52.392;9.750;2023-09-18T05:03:01;5.32;;;3.72;;
30635;SDS011;17400;52.392;9.750;2023-09-18T05:05:31;5.20;;;3.28;;
30635;SDS011;17400;52.392;9.750;2023-09-18T05:08:00;6.75;;;4.05;;
30635;SDS011;17400;52.392;9.750;2023-09-18T05:10:29;5.82;;;3.92;;
30635;SDS011;17400;52.392;9.750;2023-09-18T05:12:57;4.97;;;2.88;;
30635;SDS011;17400;52.392;9.750;2023-09-18T05:15:26;6.45;;;3.63;;
30635;SDS011;17400;52.392;9.750;2023-09-18T05:17:56;8.45;;;4.15;;
30635;SDS011;17400;52.392;9.750;2023-09-18T05:20:25;4.70;;;3.28;;
30635;SDS011;17400;52.392;9.750;2023-09-18T05:22:56;4.25;;;3.53;;
30635;SDS011;17400;52.392;9.750;2023-09-18T05:25:25;6.97;;;4.25;;
30635;SDS011;17400;52.392;9.750;2023-09-18T05:27:56;4.95;;;3.35;;
30635;SDS011;17400;52.392;9.750;2023-09-18T05:30:26;7.47;;;4.43;;
30635;SDS011;17400;52.392;9.750;2023-09-18T05:32:55;7.18;;;4.22;;
30635;SDS011;17400;52.392;9.750;2023-09-18T05:35:24;5.65;;;3.47;;
30635;SDS011;17400;52.392;9.750;2023-09-18T05:37:52;4.05;;;3.33;;
30635;SDS011;17400;52.392;9.750;2023-09-18T05:40:22;5.88;;;4.40;;
30635;SDS011;17400;52.392;9.750;2023-09-18T05:42:53;7.03;;;3.83;;
30635;SDS011;17400;52.392;9.750;2023-09-18T05:45:22;5.53;;;3.38;;
30635;SDS011;17400;52.392;9.750;2023-09-18T05:47:50;6.90;;;3.08;;
30635;SDS011;17400;52.392;9.750;2023-09-18T05:50:20;5.43;;;3.65;;
30635;SDS011;17400;52.392;9.750;2023-09-18T05:52:48;6.65;;;4.15;;
30635;SDS011;17400;52.392;9.750;2023-09-18T05:55:16;9.95;;;6.85;;
30635;SDS011;17400;52.392;9.750;2023-09-18T05:57:45;8.02;;;4.70;;
30635;SDS011;17400;52.392;9.750;2023-09-18T06:00:13;5.88;;;3.55;;
30635;SDS011;17400;52.392;9.750;2023-09-18T06:02:42;4.88;;;3.45;;
30635;SDS011;17400;52.392;9.750;2023-09-18T06:05:12;4.22;;;3.05;;
30635;SDS011;17400;52.392;9.750;2023-09-18T06:07:42;4.68;;;2.92;;
30635;SDS011;17400;52.392;9.750;2023-09-18T06:10:10;4.93;;;3.42;;
30635;SDS011;17400;52.392;9.750;2023-09-18T06:12:38;5.88;;;3.75;;
30635;SDS011;17400;52.392;9.750;2023-09-18T06:15:08;4.18;;;2.63;;
30635;SDS011;17400;52.392;9.750;2023-09-18T06:17:38;5.47;;;3.60;;
30635;SDS011;17400;52.392;9.750;2023-09-18T06:20:07;6.05;;;4.28;;
30635;SDS011;17400;52.392;9.750;2023-09-18T06:22:39;5.43;;;3.47;;
30635;SDS011;17400;52.392;9.750;2023-09-18T06:25:08;4.05;;;3.05;;
30635;SDS011;17400;52.392;9.750;2023-09-18T06:27:37;5.78;;;3.67;;
30635;SDS011;17400;52.392;9.750;2023-09-18T06:30:05;5.28;;;3.53;;
30635;SDS011;17400;52.392;9.750;2023-09-18T06:32:35;5.03;;;3.35;;
30635;SDS011;17400;52.392;9.750;2023-09-18T06:35:04;5.95;;;3.42;;
30635;SDS011;17400;52.392;9.750;2023-09-18T06:37:32;4.90;;;3.40;;
30635;SDS011;17400;52.392;9.750;2023-09-18T06:40:00;5.95;;;4.07;;
30635;SDS011;17400;52.392;9.750;2023-09-18T06:42:30;5.10;;;3.60;;
30635;SDS011;17400;52.392;9.750;2023-09-18T06:44:58;5.72;;;3.97;;
30635;SDS011;17400;52.392;9.750;2023-09-18T06:47:29;6.00;;;4.28;;
30635;SDS011;17400;52.392;9.750;2023-09-18T06:49:57;8.20;;;3.85;;
30635;SDS011;17400;52.392;9.750;2023-09-18T06:52:26;5.75;;;3.40;;
30635;SDS011;17400;52.392;9.750;2023-09-18T06:54:54;5.70;;;3.78;;
30635;SDS011;17400;52.392;9.750;2023-09-18T06:57:25;8.00;;;5.38;;
30635;SDS011;17400;52.392;9.750;2023-09-18T06:59:54;7.47;;;5.18;;
30635;SDS011;17400;52.392;9.750;2023-09-18T07:02:21;6.43;;;3.88;;
30635;SDS011;17400;52.392;9.750;2023-09-18T07:04:51;4.97;;;3.90;;
30635;SDS011;17400;52.392;9.750;2023-09-18T07:07:19;7.47;;;4.38;;
30635;SDS011;17400;52.392;9.750;2023-09-18T07:09:51;7.63;;;4.72;;
30635;SDS011;17400;52.392;9.750;2023-09-18T07:12:31;6.80;;;4.40;;
30635;SDS011;17400;52.392;9.750;2023-09-18T07:15:00;7.05;;;4.45;;
30635;SDS011;17400;52.392;9.750;2023-09-18T07:17:31;5.13;;;3.65;;
30635;SDS011;17400;52.392;9.750;2023-09-18T07:20:00;7.35;;;3.63;;
30635;SDS011;17400;52.392;9.750;2023-09-18T07:22:35;6.55;;;3.50;;
30635;SDS011;17400;52.392;9.750;2023-09-18T07:25:04;6.07;;;4.13;;
30635;SDS011;17400;52.392;9.750;2023-09-18T07:27:33;5.65;;;3.45;;
30635;SDS011;17400;52.392;9.750;2023-09-18T07:30:03;5.75;;;3.92;;
30635;SDS011;17400;52.392;9.750;2023-09-18T07:32:31;5.90;;;3.08;;
30635;SDS011;17400;52.392;9.750;2023-09-18T07:35:06;4.82;;;3.20;;
30635;SDS011;17400;52.392;9.750;2023-09-18T07:37:35;4.40;;;2.95;;
30635;SDS011;17400;52.392;9.750;2023-09-18T07:40:03;3.60;;;2.78;;
30635;SDS011;17400;52.392;9.750;2023-09-18T07:42:32;8.90;;;4.07;;
30635;SDS011;17400;52.392;9.750;2023-09-18T07:44:59;5.15;;;3.80;;
30635;SDS011;17400;52.392;9.750;2023-09-18T07:47:28;5.22;;;3.60;;
30635;SDS011;17400;52.392;9.750;2023-09-18T07:49:57;4.10;;;2.90;;
30635;SDS011;17400;52.392;9.750;2023-09-18T07:52:26;4.65;;;3.20;;
30635;SDS011;17400;52.392;9.750;2023-09-18T07:54:54;5.18;;;3.30;;
30635;SDS011;17400;52.392;9.750;2023-09-18T07:57:22;4.65;;;3.67;;
30635;SDS011;17400;52.392;9.750;2023-09-18T07:59:50;4.57;;;3.80;;
30635;SDS011;17400;52.392;9.750;2023-09-18T08:02:18;4.78;;;3.47;;
30635;SDS011;17400;52.392;9.750;2023-09-18T08:04:48;3.85;;;3.20;;
30635;SDS011;17400;52.392;9.750;2023-09-18T08:07:16;4.13;;;3.05;;
30635;SDS011;17400;52.392;9.750;2023-09-18T08:09:45;4.78;;;3.15;;
30635;SDS011;17400;52.392;9.750;2023-09-18T08:12:14;8.35;;;5.10;;
30635;SDS011;17400;52.392;9.750;2023-09-18T08:14:41;13.18;;;8.23;;
30635;SDS011;17400;52.392;9.750;2023-09-18T08:17:09;8.40;;;5.18;;
30635;SDS011;17400;52.392;9.750;2023-09-18T08:19:37;6.13;;;4.22;;
30635;SDS011;17400;52.392;9.750;2023-09-18T08:22:06;5.43;;;3.42;;
30635;SDS011;17400;52.392;9.750;2023-09-18T08:24:34;5.20;;;3.22;;
30635;SDS011;17400;52.392;9.750;2023-09-18T08:27:03;4.75;;;3.15;;
30635;SDS011;17400;52.392;9.750;2023-09-18T08:29:31;5.32;;;2.67;;
30635;SDS011;17400;52.392;9.750;2023-09-18T08:31:59;5.03;;;3.20;;
30635;SDS011;17400;52.392;9.750;2023-09-18T08:34:27;5.47;;;3.20;;
30635;SDS011;17400;52.392;9.750;2023-09-18T08:36:55;7.15;;;3.17;;
30635;SDS011;17400;52.392;9.750;2023-09-18T08:39:23;4.20;;;3.63;;
30635;SDS011;17400;52.392;9.750;2023-09-18T08:41:51;6.68;;;2.95;;
30635;SDS011;17400;52.392;9.750;2023-09-18T08:44:26;4.68;;;3.30;;
30635;SDS011;17400;52.392;9.750;2023-09-18T08:46:55;6.22;;;3.58;;
30635;SDS011;17400;52.392;9.750;2023-09-18T08:49:23;5.10;;;3.33;;
30635;SDS011;17400;52.392;9.750;2023-09-18T08:51:53;3.53;;;2.42;;
30635;SDS011;17400;52.392;9.750;2023-09-18T08:54:22;7.05;;;2.83;;
30635;SDS011;17400;52.392;9.750;2023-09-18T08:56:51;3.97;;;2.53;;
30635;SDS011;17400;52.392;9.750;2023-09-18T08:59:19;3.72;;;2.72;;
30635;SDS011;17400;52.392;9.750;2023-09-18T09:01:49;4.88;;;2.67;;
30635;SDS011;17400;52.392;9.750;2023-09-18T09:04:18;5.80;;;2.40;;
30635;SDS011;17400;52.392;9.750;2023-09-18T09:06:46;5.47;;;2.75;;
30635;SDS011;17400;52.392;9.750;2023-09-18T09:09:14;3.00;;;2.40;;
30635;SDS011;17400;52.392;9.750;2023-09-18T09:11:47;3.47;;;1.98;;
30635;SDS011;17400;52.392;9.750;2023-09-18T09:14:16;5.38;;;2.00;;
30635;SDS011;17400;52.392;9.750;2023-09-18T09:16:50;2.33;;;1.40;;
30635;SDS011;17400;52.392;9.750;2023-09-18T09:19:20;5.50;;;1.60;;
30635;SDS011;17400;52.392;9.750;2023-09-18T09:21:56;4.57;;;1.63;;
30635;SDS011;17400;52.392;9.750;2023-09-18T09:24:35;4.93;;;1.98;;
30635;SDS011;17400;52.392;9.750;2023-09-18T09:27:04;2.55;;;1.63;;
30635;SDS011;17400;52.392;9.750;2023-09-18T09:29:32;3.90;;;2.42;;
30635;SDS011;17400;52.392;9.750;2023-09-18T09:32:14;3.47;;;1.42;;
30635;SDS011;17400;52.392;9.750;2023-09-18T09:34:44;5.40;;;2.22;;
30635;SDS011;17400;52.392;9.750;2023-09-18T09:37:13;2.00;;;1.55;;
30635;SDS011;17400;52.392;9.750;2023-09-18T09:39:51;3.45;;;1.92;;
30635;SDS011;17400;52.392;9.750;2023-09-18T09:42:19;5.88;;;1.95;;
30635;SDS011;17400;52.392;9.750;2023-09-18T09:45:01;2.78;;;1.60;;
30635;SDS011;17400;52.392;9.750;2023-09-18T09:47:35;2.97;;;1.58;;
30635;SDS011;17400;52.392;9.750;2023-09-18T09:50:06;3.83;;;2.10;;
30635;SDS011;17400;52.392;9.750;2023-09-18T09:52:40;4.05;;;1.85;;
30635;SDS011;17400;52.392;9.750;2023-09-18T09:55:20;2.58;;;1.65;;
30635;SDS011;17400;52.392;9.750;2023-09-18T09:57:50;2.25;;;1.88;;
30635;SDS011;17400;52.392;9.750;2023-09-18T10:00:19;4.40;;;1.45;;
30635;SDS011;17400;52.392;9.750;2023-09-18T10:02:58;2.80;;;1.90;;
30635;SDS011;17400;52.392;9.750;2023-09-18T10:05:30;3.42;;;1.48;;
30635;SDS011;17400;52.392;9.750;2023-09-18T10:08:06;3.72;;;1.92;;
30635;SDS011;17400;52.392;9.750;2023-09-18T10:10:36;2.47;;;1.80;;
30635;SDS011;17400;52.392;9.750;2023-09-18T10:13:10;3.30;;;1.60;;
30635;SDS011;17400;52.392;9.750;2023-09-18T10:15:43;2.88;;;2.28;;
30635;SDS011;17400;52.392;9.750;2023-09-18T10:18:25;9.95;;;3.40;;
30635;SDS011;17400;52.392;9.750;2023-09-18T10:20:56;4.28;;;2.17;;
30635;SDS011;17400;52.392;9.750;2023-09-18T10:23:34;5.45;;;4.05;;
30635;SDS011;17400;52.392;9.750;2023-09-18T10:26:14;6.50;;;3.88;;
30635;SDS011;17400;52.392;9.750;2023-09-18T10:28:53;3.92;;;2.85;;
30635;SDS011;17400;52.392;9.750;2023-09-18T10:31:25;4.28;;;2.13;;
30635;SDS011;17400;52.392;9.750;2023-09-18T10:33:56;4.38;;;1.50;;
30635;SDS011;17400;52.392;9.750;2023-09-18T10:36:25;3.60;;;1.95;;
30635;SDS011;17400;52.392;9.750;2023-09-18T10:38:53;4.15;;;2.50;;
30635;SDS011;17400;52.392;9.750;2023-09-18T10:41:25;4.50;;;2.53;;
30635;SDS011;17400;52.392;9.750;2023-09-18T10:43:54;3.83;;;2.15;;
30635;SDS011;17400;52.392;9.750;2023-09-18T10:46:24;4.97;;;2.13;;
30635;SDS011;17400;52.392;9.750;2023-09-18T10:48:53;2.30;;;1.40;;
30635;SDS011;17400;52.392;9.750;2023-09-18T10:51:23;3.50;;;1.48;;
30635;SDS011;17400;52.392;9.750;2023-09-18T10:53:53;2.25;;;1.10;;
30635;SDS011;17400;52.392;9.750;2023-09-18T10:56:21;5.75;;;2.00;;
30635;SDS011;17400;52.392;9.750;2023-09-18T10:58:55;4.20;;;1.58;;
30635;SDS011;17400;52.392;9.750;2023-09-18T11:01:23;3.65;;;2.15;;
30635;SDS011;17400;52.392;9.750;2023-09-18T11:03:57;5.32;;;2.45;;
30635;SDS011;17400;52.392;9.750;2023-09-18T11:06:27;2.92;;;1.70;;
30635;SDS011;17400;52.392;9.750;2023-09-18T11:08:59;2.03;;;1.60;;
30635;SDS011;17400;52.392;9.750;2023-09-18T11:11:30;3.08;;;1.90;;
30635;SDS011;17400;52.392;9.750;2023-09-18T11:13:59;4.20;;;1.77;;
30635;SDS011;17400;52.392;9.750;2023-09-18T11:16:34;5.10;;;1.77;;
30635;SDS011;17400;52.392;9.750;2023-09-18T11:19:08;1.75;;;1.42;;
30635;SDS011;17400;52.392;9.750;2023-09-18T11:21:39;6.93;;;1.90;;
30635;SDS011;17400;52.392;9.750;2023-09-18T11:24:08;2.35;;;1.50;;
30635;SDS011;17400;52.392;9.750;2023-09-18T11:26:47;3.47;;;1.20;;
30635;SDS011;17400;52.392;9.750;2023-09-18T11:29:16;2.30;;;1.77;;
30635;SDS011;17400;52.392;9.750;2023-09-18T11:31:49;3.03;;;1.33;;
30635;SDS011;17400;52.392;9.750;2023-09-18T11:34:22;5.90;;;2.00;;
30635;SDS011;17400;52.392;9.750;2023-09-18T11:36:54;3.90;;;1.38;;
30635;SDS011;17400;52.392;9.750;2023-09-18T11:39:35;3.17;;;2.20;;
30635;SDS011;17400;52.392;9.750;2023-09-18T11:42:08;4.65;;;1.52;;
30635;SDS011;17400;52.392;9.750;2023-09-18T11:44:37;2.38;;;1.25;;
30635;SDS011;17400;52.392;9.750;2023-09-18T11:47:09;3.72;;;1.30;;
30635;SDS011;17400;52.392;9.750;2023-09-18T11:49:47;3.92;;;1.83;;
30635;SDS011;17400;52.392;9.750;2023-09-18T11:52:21;5.40;;;2.63;;
30635;SDS011;17400;52.392;9.750;2023-09-18T11:54:50;4.22;;;2.22;;
30635;SDS011;17400;52.392;9.750;2023-09-18T11:57:18;3.25;;;1.30;;
30635;SDS011;17400;52.392;9.750;2023-09-18T11:59:47;2.70;;;1.05;;
30635;SDS011;17400;52.392;9.750;2023-09-18T12:02:24;2.42;;;1.30;;
30635;SDS011;17400;52.392;9.750;2023-09-18T12:04:55;1.77;;;1.17;;
30635;SDS011;17400;52.392;9.750;2023-09-18T12:07:24;2.13;;;1.35;;
30635;SDS011;17400;52.392;9.750;2023-09-18T12:09:52;2.67;;;1.42;;
30635;SDS011;17400;52.392;9.750;2023-09-18T12:12:21;1.58;;;1.00;;
30635;SDS011;17400;52.392;9.750;2023-09-18T12:14:49;1.95;;;0.98;;
30635;SDS011;17400;52.392;9.750;2023-09-18T12:17:19;4.00;;;1.63;;
30635;SDS011;17400;52.392;9.750;2023-09-18T12:19:50;2.53;;;1.77;;
30635;SDS011;17400;52.392;9.750;2023-09-18T12:22:25;2.00;;;1.17;;
30635;SDS011;17400;52.392;9.750;2023-09-18T12:24:57;5.28;;;1.17;;
30635;SDS011;17400;52.392;9.750;2023-09-18T12:27:41;3.70;;;1.40;;
30635;SDS011;17400;52.392;9.750;2023-09-18T12:30:09;1.42;;;1.15;;
30635;SDS011;17400;52.392;9.750;2023-09-18T12:32:38;1.63;;;1.13;;
30635;SDS011;17400;52.392;9.750;2023-09-18T12:35:07;2.35;;;1.45;;
30635;SDS011;17400;52.392;9.750;2023-09-18T12:37:40;3.63;;;1.30;;
30635;SDS011;17400;52.392;9.750;2023-09-18T12:40:20;3.42;;;1.45;;
30635;SDS011;17400;52.392;9.750;2023-09-18T12:42:48;2.72;;;1.48;;
30635;SDS011;17400;52.392;9.750;2023-09-18T12:45:17;2.58;;;1.27;;
30635;SDS011;17400;52.392;9.750;2023-09-18T12:47:46;2.10;;;1.02;;
30635;SDS011;17400;52.392;9.750;2023-09-18T12:50:14;1.05;;;0.95;;
30635;SDS011;17400;52.392;9.750;2023-09-18T12:52:43;2.03;;;1.20;;
30635;SDS011;17400;52.392;9.750;2023-09-18T12:55:24;1.30;;;0.70;;
30635;SDS011;17400;52.392;9.750;2023-09-18T12:57:54;1.02;;;0.70;;
30635;SDS011;17400;52.392;9.750;2023-09-18T13:00:22;0.88;;;0.70;;
30635;SDS011;17400;52.392;9.750;2023-09-18T13:02:53;1.48;;;0.82;;
30635;SDS011;17400;52.392;9.750;2023-09-18T13:05:24;3.90;;;1.00;;
30635;SDS011;17400;52.392;9.750;2023-09-18T13:07:55;1.45;;;0.73;;
30635;SDS011;17400;52.392;9.750;2023-09-18T13:10:23;2.90;;;1.10;;
30635;SDS011;17400;52.392;9.750;2023-09-18T13:12:54;1.20;;;0.77;;
30635;SDS011;17400;52.392;9.750;2023-09-18T13:15:24;1.25;;;0.52;;
30635;SDS011;17400;52.392;9.750;2023-09-18T13:17:53;5.30;;;0.60;;
30635;SDS011;17400;52.392;9.750;2023-09-18T13:20:22;1.10;;;0.82;;
30635;SDS011;17400;52.392;9.750;2023-09-18T13:22:53;2.25;;;1.02;;
30635;SDS011;17400;52.392;9.750;2023-09-18T13:25:24;2.08;;;1.10;;
30635;SDS011;17400;52.392;9.750;2023-09-18T13:27:53;1.70;;;1.00;;
30635;SDS011;17400;52.392;9.750;2023-09-18T13:30:22;2.28;;;0.90;;
30635;SDS011;17400;52.392;9.750;2023-09-18T13:32:50;1.42;;;0.82;;
30635;SDS011;17400;52.392;9.750;2023-09-18T13:35:19;3.22;;;1.88;;
30635;SDS011;17400;52.392;9.750;2023-09-18T13:37:47;3.15;;;1.60;;
30635;SDS011;17400;52.392;9.750;2023-09-18T13:40:17;3.15;;;1.95;;
30635;SDS011;17400;52.392;9.750;2023-09-18T13:42:45;1.77;;;1.13;;
30635;SDS011;17400;52.392;9.750;2023-09-18T13:45:15;2.40;;;1.48;;
30635;SDS011;17400;52.392;9.750;2023-09-18T13:47:43;3.45;;;1.20;;
30635;SDS011;17400;52.392;9.750;2023-09-18T13:50:11;3.47;;;1.38;;
30635;SDS011;17400;52.392;9.750;2023-09-18T13:52:40;1.90;;;1.38;;
30635;SDS011;17400;52.392;9.750;2023-09-18T13:55:08;3.08;;;1.45;;
30635;SDS011;17400;52.392;9.750;2023-09-18T13:57:38;4.03;;;1.52;;
30635;SDS011;17400;52.392;9.750;2023-09-18T14:00:08;6.25;;;1.40;;
30635;SDS011;17400;52.392;9.750;2023-09-18T14:02:38;2.22;;;1.00;;
30635;SDS011;17400;52.392;9.750;2023-09-18T14:05:07;1.55;;;1.08;;
30635;SDS011;17400;52.392;9.750;2023-09-18T14:07:36;3.10;;;1.10;;
30635;SDS011;17400;52.392;9.750;2023-09-18T14:10:06;2.75;;;1.08;;
30635;SDS011;17400;52.392;9.750;2023-09-18T14:12:38;2.63;;;0.70;;
30635;SDS011;17400;52.392;9.750;2023-09-18T14:15:06;3.45;;;1.10;;
30635;SDS011;17400;52.392;9.750;2023-09-18T14:17:35;3.22;;;2.42;;
30635;SDS011;17400;52.392;9.750;2023-09-18T14:20:05;5.78;;;3.60;;
30635;SDS011;17400;52.392;9.750;2023-09-18T14:22:34;6.20;;;2.83;;
30635;SDS011;17400;52.392;9.750;2023-09-18T14:25:02;3.22;;;1.70;;
30635;SDS011;17400;52.392;9.750;2023-09-18T14:27:34;2.55;;;1.20;;
30635;SDS011;17400;52.392;9.750;2023-09-18T14:30:04;2.45;;;1.40;;
30635;SDS011;17400;52.392;9.750;2023-09-18T14:32:34;5.38;;;1.60;;
30635;SDS011;17400;52.392;9.750;2023-09-18T14:35:05;3.15;;;1.50;;
30635;SDS011;17400;52.392;9.750;2023-09-18T14:37:34;1.27;;;0.93;;
30635;SDS011;17400;52.392;9.750;2023-09-18T14:40:03;1.73;;;1.30;;
30635;SDS011;17400;52.392;9.750;2023-09-18T14:42:33;3.25;;;1.77;;
30635;SDS011;17400;52.392;9.750;2023-09-18T14:45:01;1.83;;;1.27;;
30635;SDS011;17400;52.392;9.750;2023-09-18T14:47:31;3.80;;;1.30;;
30635;SDS011;17400;52.392;9.750;2023-09-18T14:49:59;3.40;;;1.75;;
30635;SDS011;17400;52.392;9.750;2023-09-18T14:52:28;2.60;;;1.85;;
30635;SDS011;17400;52.392;9.750;2023-09-18T14:54:56;3.33;;;1.50;;
30635;SDS011;17400;52.392;9.750;2023-09-18T14:57:24;2.58;;;1.00;;
30635;SDS011;17400;52.392;9.750;2023-09-18T14:59:53;2.75;;;1.70;;
30635;SDS011;17400;52.392;9.750;2023-09-18T15:02:21;2.58;;;1.17;;